createdAt,value
2023-03-28T00:02:14.527Z,27.50
2023-03-28T00:04:43.738Z,27.50
2023-03-28T00:07:13.126Z,27.50
2023-03-28T00:09:42.495Z,27.50
2023-03-28T00:12:11.984Z,27.50
2023-03-28T00:14:41.955Z,27.60
2023-03-28T00:17:11.199Z,27.60
2023-03-28T00:19:41.890Z,27.60
2023-03-28T00:22:12.364Z,27.70
2023-03-28T00:24:41.840Z,27.70
2023-03-28T00:27:11.586Z,27.80
2023-03-28T00:29:40.812Z,27.70
2023-03-28T00:32:10.840Z,27.80
2023-03-28T00:34:40.148Z,27.90
2023-03-28T00:37:11.696Z,27.90
2023-03-28T00:39:41.066Z,27.90
2023-03-28T00:44:56.894Z,28.00
2023-03-28T00:47:41.881Z,28.00
2023-03-28T00:50:33.987Z,28.10
2023-03-28T00:53:27.353Z,28.10
2023-03-28T00:56:09.207Z,28.20
2023-03-28T00:58:45.790Z,28.20
2023-03-28T01:01:22.879Z,28.20
2023-03-28T01:04:06.553Z,28.30
2023-03-28T01:06:47.633Z,28.30
2023-03-28T01:09:20.147Z,28.40
2023-03-28T01:11:53.729Z,28.40
2023-03-28T01:14:28.226Z,28.50
2023-03-28T01:16:58.691Z,28.50
2023-03-28T01:20:03.439Z,28.50
2023-03-28T01:23:23.676Z,28.60
2023-03-28T01:26:41.544Z,28.60
2023-03-28T01:29:43.714Z,28.70
2023-03-28T01:32:39.798Z,28.80
2023-03-28T01:35:28.358Z,28.80
2023-03-28T01:38:21.410Z,28.90
2023-03-28T01:41:38.077Z,29.00
2023-03-28T01:44:22.984Z,29.00
2023-03-28T01:47:22.053Z,29.10
2023-03-28T01:50:30.726Z,29.20
2023-03-28T01:53:27.857Z,29.20
2023-03-28T01:56:14.383Z,29.30
2023-03-28T01:59:08.986Z,29.40
2023-03-28T02:02:06.445Z,29.50
2023-03-28T02:04:41.524Z,29.60
2023-03-28T02:07:14.161Z,29.60
2023-03-28T02:09:48.474Z,29.60
2023-03-28T02:12:47.041Z,29.70
2023-03-28T02:15:20.564Z,29.80
2023-03-28T02:18:03.456Z,29.80
2023-03-28T02:20:38.038Z,29.80
2023-03-28T02:23:25.214Z,29.90
2023-03-28T02:25:54.548Z,29.90
2023-03-28T02:28:25.333Z,30.00
2023-03-28T02:30:54.660Z,30.00
2023-03-28T02:33:45.699Z,30.10
2023-03-28T02:37:03.976Z,30.20
2023-03-28T02:39:52.554Z,30.30
2023-03-28T02:42:55.434Z,30.40
2023-03-28T02:46:05.724Z,30.50
2023-03-28T02:48:37.606Z,30.60
2023-03-28T02:51:35.868Z,30.60
2023-03-28T02:54:25.092Z,30.70
2023-03-28T02:57:29.340Z,30.70
2023-03-28T03:00:13.526Z,30.80
2023-03-28T03:02:46.304Z,30.80
2023-03-28T03:05:15.586Z,30.90
2023-03-28T03:07:44.897Z,30.90
2023-03-28T03:10:18.124Z,30.90
2023-03-28T03:12:47.744Z,30.90
2023-03-28T03:15:20.161Z,31.00
2023-03-28T03:17:49.643Z,31.00
2023-03-28T03:20:19.674Z,31.00
2023-03-28T03:22:48.870Z,31.10
2023-03-28T03:25:18.207Z,31.20
2023-03-28T03:27:47.582Z,31.20
2023-03-28T03:30:16.802Z,31.20
2023-03-28T03:32:46.197Z,31.30
2023-03-28T03:35:15.432Z,31.30
2023-03-28T03:37:44.631Z,31.40
2023-03-28T03:40:14.081Z,31.50
2023-03-28T03:42:46.358Z,31.50
2023-03-28T03:45:16.775Z,31.60
2023-03-28T03:47:46.155Z,31.60
2023-03-28T03:50:15.489Z,31.70
2023-03-28T03:52:44.711Z,31.70
2023-03-28T03:55:15.648Z,31.80
2023-03-28T03:57:44.807Z,31.90
2023-03-28T04:00:15.598Z,32.00
2023-03-28T04:02:44.823Z,32.00
2023-03-28T04:05:14.448Z,32.10
2023-03-28T04:07:43.963Z,32.10
2023-03-28T04:10:13.276Z,32.20
2023-03-28T04:12:42.550Z,32.30
2023-03-28T04:15:12.405Z,32.30
2023-03-28T04:17:42.136Z,32.30
2023-03-28T04:20:14.861Z,32.40
2023-03-28T04:22:45.183Z,32.40
2023-03-28T04:25:16.057Z,32.50
2023-03-28T04:27:48.504Z,32.60
2023-03-28T04:30:18.803Z,32.70
2023-03-28T04:32:51.406Z,32.70
2023-03-28T04:35:21.287Z,32.80
2023-03-28T04:37:50.808Z,32.90
2023-03-28T04:40:20.030Z,33.00
2023-03-28T04:42:49.268Z,33.00
2023-03-28T04:45:19.752Z,33.10
2023-03-28T04:47:49.819Z,33.20
2023-03-28T04:50:19.422Z,33.30
2023-03-28T04:52:48.640Z,33.40
2023-03-28T04:55:17.880Z,33.60
2023-03-28T04:57:47.052Z,33.80
2023-03-28T05:00:19.471Z,34.00
2023-03-28T05:02:48.859Z,34.20
2023-03-28T05:05:18.379Z,34.30
2023-03-28T05:07:47.542Z,34.50
2023-03-28T05:10:17.445Z,34.60
2023-03-28T05:12:46.601Z,34.70
2023-03-28T05:15:21.348Z,34.80
2023-03-28T05:17:52.645Z,34.80
2023-03-28T05:20:22.172Z,34.80
2023-03-28T05:22:51.301Z,34.70
2023-03-28T05:25:21.451Z,34.80
2023-03-28T05:27:52.260Z,34.80
2023-03-28T05:30:22.157Z,34.90
2023-03-28T05:32:51.331Z,35.00
2023-03-28T05:35:20.684Z,35.10
2023-03-28T05:37:50.027Z,35.30
2023-03-28T05:40:19.774Z,35.40
2023-03-28T05:42:49.530Z,35.60
2023-03-28T05:45:18.928Z,35.60
2023-03-28T05:47:48.224Z,35.70
2023-03-28T05:50:17.462Z,35.70
2023-03-28T05:52:46.639Z,35.80
2023-03-28T05:55:16.026Z,35.90
2023-03-28T05:57:45.247Z,36.00
2023-03-28T06:00:15.284Z,36.10
2023-03-28T06:02:44.725Z,36.20
2023-03-28T06:05:14.738Z,36.30
2023-03-28T06:07:44.168Z,36.50
2023-03-28T06:10:16.510Z,36.60
2023-03-28T06:12:46.113Z,36.60
2023-03-28T06:15:15.471Z,36.60
2023-03-28T06:17:44.828Z,36.60
2023-03-28T06:20:14.481Z,36.60
2023-03-28T06:22:44.004Z,36.60
2023-03-28T06:25:13.378Z,36.70
2023-03-28T06:27:42.662Z,36.70
2023-03-28T06:30:12.723Z,36.80
2023-03-28T06:32:42.042Z,36.80
2023-03-28T06:35:11.680Z,36.80
2023-03-28T06:37:40.879Z,36.90
2023-03-28T06:40:12.010Z,36.70
2023-03-28T06:42:42.127Z,36.70
2023-03-28T06:45:12.375Z,36.70
2023-03-28T06:47:41.739Z,36.70
2023-03-28T06:50:11.848Z,36.80
2023-03-28T06:52:41.421Z,36.80
2023-03-28T06:55:11.189Z,36.90
2023-03-28T06:57:40.533Z,37.00
2023-03-28T07:00:10.548Z,37.00
2023-03-28T07:02:39.879Z,37.00
2023-03-28T07:05:09.538Z,37.10
2023-03-28T07:07:38.693Z,37.10
2023-03-28T07:10:09.104Z,37.20
2023-03-28T07:12:38.649Z,37.20
2023-03-28T07:15:08.507Z,37.20
2023-03-28T07:17:37.854Z,37.40
2023-03-28T07:20:08.295Z,37.50
2023-03-28T07:22:37.520Z,37.60
2023-03-28T07:25:09.034Z,37.70
2023-03-28T07:27:38.255Z,37.80
2023-03-28T07:30:09.138Z,37.80
2023-03-28T07:32:48.113Z,38.00
2023-03-28T07:35:21.752Z,38.10
2023-03-28T07:37:50.903Z,38.00
2023-03-28T07:40:20.122Z,38.10
2023-03-28T07:42:51.623Z,38.10
2023-03-28T07:45:20.888Z,38.20
2023-03-28T07:47:50.277Z,38.20
2023-03-28T07:50:22.321Z,38.30
2023-03-28T07:52:58.342Z,38.40
2023-03-28T07:55:28.429Z,38.40
2023-03-28T07:57:57.759Z,38.30
2023-03-28T08:00:28.468Z,38.40
2023-03-28T08:02:59.994Z,38.40
2023-03-28T08:05:29.400Z,38.40
2023-03-28T08:07:59.494Z,38.50
2023-03-28T08:10:28.788Z,38.60
2023-03-28T08:12:58.140Z,38.60
2023-03-28T08:15:27.854Z,38.60
2023-03-28T08:17:57.282Z,38.60
2023-03-28T08:20:26.729Z,38.50
2023-03-28T08:22:56.170Z,38.40
2023-03-28T08:25:25.426Z,38.40
2023-03-28T08:27:54.632Z,38.40
2023-03-28T08:30:23.920Z,38.30
2023-03-28T08:32:53.361Z,38.30
2023-03-28T08:35:22.647Z,38.20
2023-03-28T08:37:53.152Z,38.20
2023-03-28T08:40:25.705Z,38.10
2023-03-28T08:43:33.769Z,38.00
2023-03-28T08:46:03.496Z,37.90
2023-03-28T08:48:48.393Z,37.70
2023-03-28T08:51:27.089Z,37.50
2023-03-28T08:54:24.393Z,37.20
2023-03-28T08:56:58.739Z,37.00
2023-03-28T08:59:48.395Z,36.70
2023-03-28T09:02:24.649Z,36.50
2023-03-28T09:04:57.999Z,36.30
2023-03-28T09:08:23.584Z,36.20
2023-03-28T09:11:30.196Z,36.00
2023-03-28T09:14:24.999Z,35.80
2023-03-28T09:17:27.967Z,35.70
2023-03-28T09:20:21.316Z,35.60
2023-03-28T09:23:27.346Z,35.40
2023-03-28T09:26:28.781Z,35.30
2023-03-28T09:29:21.724Z,35.20
2023-03-28T09:31:59.117Z,35.10
2023-03-28T09:34:37.802Z,35.00
2023-03-28T09:37:40.389Z,35.00
2023-03-28T09:40:18.950Z,34.90
2023-03-28T09:43:26.837Z,34.90
2023-03-28T09:46:30.006Z,34.90
2023-03-28T09:48:59.916Z,34.90
2023-03-28T09:51:29.735Z,34.90
2023-03-28T09:53:58.986Z,35.00
2023-03-28T09:56:45.143Z,35.00
2023-03-28T09:59:35.885Z,35.00
2023-03-28T10:02:06.346Z,35.00
2023-03-28T10:04:39.908Z,35.00
2023-03-28T10:07:12.213Z,35.00
2023-03-28T10:09:58.165Z,34.90
2023-03-28T10:12:37.608Z,34.90
2023-03-28T10:15:09.824Z,34.80
2023-03-28T10:17:41.719Z,34.80
2023-03-28T10:20:23.185Z,34.80
2023-03-28T10:22:58.188Z,34.80
2023-03-28T10:25:51.193Z,34.80
2023-03-28T10:28:33.354Z,34.80
2023-03-28T10:31:05.131Z,34.80
2023-03-28T10:33:47.358Z,34.70
2023-03-28T10:36:44.933Z,34.60
2023-03-28T10:39:31.129Z,34.50
2023-03-28T10:42:03.116Z,34.30
2023-03-28T10:44:41.556Z,34.10
2023-03-28T10:47:20.551Z,34.00
2023-03-28T10:49:54.791Z,33.90
2023-03-28T10:53:00.557Z,33.90
2023-03-28T10:56:04.132Z,33.90
2023-03-28T10:58:50.152Z,33.90
2023-03-28T11:01:33.610Z,33.80
2023-03-28T11:04:52.579Z,33.80
2023-03-28T11:07:46.469Z,33.70
2023-03-28T11:10:44.317Z,33.70
2023-03-28T11:14:05.378Z,33.70
2023-03-28T11:17:14.936Z,33.60
2023-03-28T11:20:18.528Z,33.50
2023-03-28T11:23:29.667Z,33.40
2023-03-28T11:26:27.366Z,33.40
2023-03-28T11:29:19.152Z,33.30
2023-03-28T11:32:16.391Z,33.20
2023-03-28T11:35:30.240Z,33.20
2023-03-28T11:38:14.850Z,33.20
2023-03-28T11:41:08.737Z,33.10
2023-03-28T11:43:57.274Z,33.10
2023-03-28T11:46:39.235Z,33.00
2023-03-28T11:49:23.628Z,33.00
2023-03-28T11:52:10.956Z,33.00
2023-03-28T11:54:55.288Z,32.90
2023-03-28T11:57:36.113Z,32.90
2023-03-28T12:00:58.920Z,32.80
2023-03-28T12:03:34.505Z,32.80
2023-03-28T12:06:14.167Z,32.70
2023-03-28T12:09:12.209Z,32.70
2023-03-28T12:11:58.124Z,32.70
2023-03-28T12:15:18.147Z,32.70
2023-03-28T12:18:06.072Z,32.50
2023-03-28T12:20:50.607Z,32.40
2023-03-28T12:23:38.862Z,32.40
2023-03-28T12:26:37.707Z,32.30
2023-03-28T12:29:26.436Z,32.20
2023-03-28T12:32:47.796Z,32.10
2023-03-28T12:35:49.250Z,32.10
2023-03-28T12:38:43.817Z,32.00
2023-03-28T12:41:24.389Z,32.00
2023-03-28T12:44:14.688Z,32.00
2023-03-28T12:47:25.707Z,32.00
2023-03-28T12:50:33.762Z,31.90
2023-03-28T12:53:03.292Z,31.90
2023-03-28T12:55:35.343Z,31.90
2023-03-28T12:58:30.915Z,31.90
2023-03-28T13:01:20.841Z,31.80
2023-03-28T13:04:28.886Z,31.90
2023-03-28T13:07:28.212Z,31.90
2023-03-28T13:10:20.976Z,31.90
2023-03-28T13:13:29.317Z,31.90
2023-03-28T13:16:30.836Z,32.00
2023-03-28T13:19:15.210Z,32.00
2023-03-28T13:21:56.013Z,32.00
2023-03-28T13:24:30.152Z,32.00
2023-03-28T13:27:12.342Z,32.00
2023-03-28T13:30:06.437Z,32.00
2023-03-28T13:32:43.392Z,32.00
2023-03-28T13:35:50.283Z,32.00
2023-03-28T13:38:31.885Z,32.00
2023-03-28T13:41:13.727Z,32.00
2023-03-28T13:43:50.253Z,32.00
2023-03-28T13:46:43.170Z,32.10
2023-03-28T13:49:18.939Z,32.10
2023-03-28T13:52:05.901Z,32.10
2023-03-28T13:54:36.218Z,32.00
2023-03-28T13:57:20.135Z,32.00
2023-03-28T14:00:02.456Z,32.10
2023-03-28T14:02:37.192Z,32.10
2023-03-28T14:05:32.501Z,32.00
2023-03-28T14:08:24.819Z,32.00
2023-03-28T14:10:56.486Z,32.00
2023-03-28T14:13:31.887Z,32.10
2023-03-28T14:16:01.381Z,32.10
2023-03-28T14:18:35.776Z,32.10
2023-03-28T14:21:08.651Z,32.10
2023-03-28T14:23:41.489Z,32.10
2023-03-28T14:26:23.158Z,32.00
2023-03-28T14:28:54.470Z,32.10
2023-03-28T14:31:41.233Z,32.00
2023-03-28T14:34:27.174Z,32.00
2023-03-28T14:37:07.157Z,31.90
2023-03-28T14:39:42.607Z,31.70
2023-03-28T14:42:19.681Z,31.60
2023-03-28T14:44:55.643Z,31.40
2023-03-28T14:47:36.129Z,31.30
2023-03-28T14:50:06.598Z,31.20
2023-03-28T14:52:41.759Z,31.10
2023-03-28T14:55:27.167Z,31.10
2023-03-28T14:57:57.929Z,31.10
2023-03-28T15:00:38.716Z,31.00
2023-03-28T15:03:15.980Z,31.00
2023-03-28T15:05:50.009Z,31.00
2023-03-28T15:08:35.157Z,30.90
2023-03-28T15:11:21.911Z,30.90
2023-03-28T15:14:08.715Z,30.90
2023-03-28T15:16:43.296Z,30.90
2023-03-28T15:19:38.569Z,30.80
2023-03-28T15:22:16.530Z,30.30
2023-03-28T15:24:47.159Z,29.50
2023-03-28T15:27:32.179Z,28.80
2023-03-28T15:30:17.754Z,28.10
2023-03-28T15:32:48.046Z,27.50
2023-03-28T15:35:40.898Z,26.90
2023-03-28T15:38:14.673Z,26.50
2023-03-28T15:40:50.258Z,26.10
2023-03-28T15:43:29.175Z,25.90
2023-03-28T15:46:13.782Z,25.60
2023-03-28T15:48:44.871Z,25.40
2023-03-28T15:51:20.895Z,25.20
2023-03-28T15:53:52.720Z,25.00
2023-03-28T15:56:32.958Z,24.60
2023-03-28T15:59:15.553Z,24.30
2023-03-28T16:01:45.283Z,24.30
2023-03-28T16:04:27.282Z,24.10
2023-03-28T16:07:21.559Z,24.00
2023-03-28T16:09:52.272Z,23.80
2023-03-28T16:12:22.008Z,23.80
2023-03-28T16:14:56.111Z,23.70
2023-03-28T16:17:29.721Z,23.70
2023-03-28T16:20:00.439Z,23.70
2023-03-28T16:22:30.008Z,23.70
2023-03-28T16:24:59.253Z,23.80
2023-03-28T16:27:28.531Z,23.90
2023-03-28T16:29:57.876Z,24.00
2023-03-28T16:32:27.637Z,24.10
2023-03-28T16:34:57.064Z,24.20
2023-03-28T16:37:26.285Z,24.30
2023-03-28T16:39:55.655Z,24.40
2023-03-28T16:42:27.833Z,24.40
2023-03-28T16:44:57.380Z,24.50
2023-03-28T16:47:27.140Z,24.60
2023-03-28T16:49:59.800Z,24.60
2023-03-28T16:52:30.057Z,24.70
2023-03-28T16:54:59.415Z,24.70
2023-03-28T16:57:29.043Z,24.70
2023-03-28T16:59:58.397Z,24.70
2023-03-28T17:02:27.870Z,24.70
2023-03-28T17:04:57.249Z,24.70
2023-03-28T17:07:26.968Z,24.70
2023-03-28T17:09:56.765Z,24.70
2023-03-28T17:12:27.136Z,24.70
2023-03-28T17:14:56.437Z,24.80
2023-03-28T17:17:25.743Z,24.80
2023-03-28T17:19:55.009Z,24.80
2023-03-28T17:22:24.353Z,24.80
2023-03-28T17:24:56.537Z,24.80
2023-03-28T17:27:25.884Z,24.80
2023-03-28T17:29:55.377Z,24.80
2023-03-28T17:32:25.088Z,24.80
2023-03-28T17:34:54.735Z,24.90
2023-03-28T17:37:25.283Z,25.00
2023-03-28T17:39:54.751Z,25.00
2023-03-28T17:42:25.278Z,25.00
2023-03-28T17:44:55.636Z,25.00
2023-03-28T17:47:25.030Z,25.00
2023-03-28T17:49:56.934Z,25.10
2023-03-28T17:52:26.259Z,25.10
2023-03-28T17:54:55.522Z,25.20
2023-03-28T17:57:25.144Z,25.20
2023-03-28T17:59:55.597Z,25.20
2023-03-28T18:02:25.931Z,25.30
2023-03-28T18:04:55.312Z,25.30
2023-03-28T18:07:24.810Z,25.30
2023-03-28T18:09:54.792Z,25.30
2023-03-28T18:12:24.184Z,25.40
2023-03-28T18:14:53.432Z,25.40
2023-03-28T18:17:23.967Z,25.50
2023-03-28T18:19:53.449Z,25.50
2023-03-28T18:22:22.970Z,25.50
2023-03-28T18:24:52.249Z,25.50
2023-03-28T18:27:21.501Z,25.50
2023-03-28T18:29:50.814Z,25.50
2023-03-28T18:32:20.231Z,25.50
2023-03-28T18:34:49.475Z,25.50
2023-03-28T18:37:18.737Z,25.50
2023-03-28T18:39:48.090Z,25.60
2023-03-28T18:42:17.484Z,25.60
2023-03-28T18:44:47.573Z,25.70
2023-03-28T18:47:17.698Z,25.70
2023-03-28T18:49:47.211Z,25.80
2023-03-28T18:52:16.681Z,25.80
2023-03-28T18:54:46.794Z,25.80
2023-03-28T18:57:17.007Z,25.80
2023-03-28T18:59:46.529Z,25.80
2023-03-28T19:02:18.583Z,25.70
2023-03-28T19:04:48.422Z,25.70
2023-03-28T19:07:19.952Z,25.70
2023-03-28T19:09:49.839Z,25.70
2023-03-28T19:12:19.065Z,25.80
2023-03-28T19:14:48.356Z,25.80
2023-03-28T19:17:17.820Z,25.80
2023-03-28T19:19:47.198Z,25.90
2023-03-28T19:22:16.596Z,25.80
2023-03-28T19:24:45.875Z,25.80
2023-03-28T19:27:15.148Z,25.80
2023-03-28T19:29:44.403Z,25.80
2023-03-28T19:32:13.699Z,25.80
2023-03-28T19:34:42.940Z,25.80
2023-03-28T19:37:12.629Z,25.80
2023-03-28T19:39:42.069Z,25.80
2023-03-28T19:42:11.614Z,25.70
2023-03-28T19:44:40.896Z,25.80
2023-03-28T19:47:10.100Z,25.70
2023-03-28T19:49:39.743Z,25.70
2023-03-28T19:52:10.856Z,25.80
2023-03-28T19:54:40.436Z,25.80
2023-03-28T19:57:09.805Z,25.80
2023-03-28T19:59:39.450Z,25.80
2023-03-28T20:02:10.618Z,25.80
2023-03-28T20:04:39.979Z,25.80
2023-03-28T20:07:09.296Z,25.80
2023-03-28T20:09:38.577Z,25.80
2023-03-28T20:12:08.022Z,25.70
2023-03-28T20:14:37.321Z,25.70
2023-03-28T20:17:06.644Z,25.60
2023-03-28T20:19:38.620Z,25.60
2023-03-28T20:22:09.007Z,25.60
2023-03-28T20:24:38.629Z,25.70
2023-03-28T20:27:07.898Z,25.70
2023-03-28T20:29:38.380Z,25.70
2023-03-28T20:32:09.825Z,25.70
2023-03-28T20:34:39.661Z,25.70
2023-03-28T20:37:09.322Z,25.70
2023-03-28T20:39:38.609Z,25.70
2023-03-28T20:42:08.166Z,25.60
2023-03-28T20:44:40.518Z,25.60
2023-03-28T20:47:11.658Z,25.60
2023-03-28T20:49:47.234Z,25.60
2023-03-28T20:52:16.707Z,25.60
2023-03-28T20:54:47.162Z,25.60
2023-03-28T20:57:16.475Z,25.60
2023-03-28T20:59:45.798Z,25.60
2023-03-28T21:02:15.817Z,25.60
2023-03-28T21:04:45.355Z,25.60
2023-03-28T21:07:15.044Z,25.60
2023-03-28T21:09:44.450Z,25.60
2023-03-28T21:12:13.738Z,25.60
2023-03-28T21:14:42.988Z,25.60
2023-03-28T21:17:26.147Z,25.60
2023-03-28T21:19:55.903Z,25.60
2023-03-28T21:22:25.153Z,25.50
2023-03-28T21:24:54.512Z,25.50
2023-03-28T21:27:23.792Z,25.50
2023-03-28T21:29:53.388Z,25.50
2023-03-28T21:32:22.718Z,25.50
2023-03-28T21:34:52.219Z,25.50
2023-03-28T21:37:21.418Z,25.50
2023-03-28T21:39:50.715Z,25.60
2023-03-28T21:42:19.957Z,25.50
2023-03-28T21:44:49.213Z,25.50
2023-03-28T21:47:18.512Z,25.50
2023-03-28T21:49:50.307Z,25.50
2023-03-28T21:52:20.593Z,25.40
2023-03-28T21:54:49.848Z,25.40
2023-03-28T21:57:19.161Z,25.40
2023-03-28T21:59:48.464Z,25.30
2023-03-28T22:02:18.088Z,25.30
2023-03-28T22:04:48.141Z,25.30
2023-03-28T22:07:17.410Z,25.30
2023-03-28T22:09:46.639Z,25.30
2023-03-28T22:12:15.891Z,25.20
2023-03-28T22:14:45.177Z,25.30
2023-03-28T22:17:14.890Z,25.30
2023-03-28T22:19:43.974Z,25.30
2023-03-28T22:22:13.067Z,25.30
2023-03-28T22:24:42.236Z,25.30
2023-03-28T22:27:11.755Z,25.30
2023-03-28T22:29:41.010Z,25.30
2023-03-28T22:32:10.260Z,25.30
2023-03-28T22:34:39.557Z,25.30
2023-03-28T22:37:10.050Z,25.30
2023-03-28T22:39:39.157Z,25.30
2023-03-28T22:42:09.576Z,25.40
2023-03-28T22:44:38.863Z,25.40
2023-03-28T22:47:07.915Z,25.30
2023-03-28T22:49:39.192Z,25.40
2023-03-28T22:52:08.360Z,25.40
2023-03-28T22:54:38.635Z,25.40
2023-03-28T22:57:08.180Z,25.30
2023-03-28T22:59:37.369Z,25.30
2023-03-28T23:02:07.077Z,25.30
2023-03-28T23:04:36.286Z,25.30
2023-03-28T23:07:05.636Z,25.20
2023-03-28T23:09:34.959Z,25.20
2023-03-28T23:12:04.214Z,25.20
2023-03-28T23:14:34.137Z,25.20
2023-03-28T23:17:04.591Z,25.20
2023-03-28T23:19:34.078Z,25.20
2023-03-28T23:22:03.499Z,25.10
2023-03-28T23:24:32.958Z,25.20
2023-03-28T23:27:02.199Z,25.10
2023-03-28T23:29:31.900Z,25.10
2023-03-28T23:32:01.344Z,25.10
2023-03-28T23:34:30.636Z,25.10
2023-03-28T23:37:02.513Z,25.10
2023-03-28T23:39:32.253Z,25.10
2023-03-28T23:42:01.592Z,25.10
2023-03-28T23:44:31.784Z,25.10
2023-03-28T23:47:01.872Z,25.20
2023-03-28T23:49:31.266Z,25.20
2023-03-28T23:52:00.872Z,25.20
2023-03-28T23:54:31.522Z,25.10
2023-03-28T23:57:00.848Z,25.10
2023-03-28T23:59:30.962Z,25.10
